sensor_id;sensor_type;location;lat;lon;timestamp;P1;durP1;ratioP1;P2;durP2;ratioP2
42602;SDS011;28233;55.748;48.752;2024-03-08T00:00:29;2.20;;;1.55;;
42602;SDS011;28233;55.748;48.752;2024-03-08T00:02:38;2.25;;;1.42;;
42602;SDS011;28233;55.748;48.752;2024-03-08T00:04:42;3.13;;;1.60;;
42602;SDS011;28233;55.748;48.752;2024-03-08T00:06:44;4.85;;;1.58;;
42602;SDS011;28233;55.748;48.752;2024-03-08T00:08:48;3.42;;;1.27;;
42602;SDS011;28233;55.748;48.752;2024-03-08T00:10:51;2.60;;;1.25;;
42602;SDS011;28233;55.748;48.752;2024-03-08T00:12:54;2.40;;;1.38;;
42602;SDS011;28233;55.748;48.752;2024-03-08T00:14:56;6.35;;;1.90;;
42602;SDS011;28233;55.748;48.752;2024-03-08T00:16:59;2.70;;;1.42;;
42602;SDS011;28233;55.748;48.752;2024-03-08T00:19:02;3.65;;;1.77;;
42602;SDS011;28233;55.748;48.752;2024-03-08T00:21:05;4.18;;;1.58;;
42602;SDS011;28233;55.748;48.752;2024-03-08T00:23:07;2.22;;;1.35;;
42602;SDS011;28233;55.748;48.752;2024-03-08T00:25:10;2.05;;;1.20;;
42602;SDS011;28233;55.748;48.752;2024-03-08T00:27:14;5.13;;;1.85;;
42602;SDS011;28233;55.748;48.752;2024-03-08T00:29:18;3.05;;;1.15;;
42602;SDS011;28233;55.748;48.752;2024-03-08T00:31:20;2.17;;;1.02;;
42602;SDS011;28233;55.748;48.752;2024-03-08T00:33:24;2.80;;;1.55;;
42602;SDS011;28233;55.748;48.752;2024-03-08T00:35:26;3.90;;;1.83;;
42602;SDS011;28233;55.748;48.752;2024-03-08T00:37:29;3.13;;;1.58;;
42602;SDS011;28233;55.748;48.752;2024-03-08T00:39:32;5.90;;;1.83;;
42602;SDS011;28233;55.748;48.752;2024-03-08T00:41:35;1.70;;;1.23;;
42602;SDS011;28233;55.748;48.752;2024-03-08T00:43:38;7.10;;;1.60;;
42602;SDS011;28233;55.748;48.752;2024-03-08T00:45:41;2.63;;;1.10;;
42602;SDS011;28233;55.748;48.752;2024-03-08T00:47:47;4.82;;;1.65;;
42602;SDS011;28233;55.748;48.752;2024-03-08T00:49:50;4.28;;;1.55;;
42602;SDS011;28233;55.748;48.752;2024-03-08T00:51:53;4.28;;;1.88;;
42602;SDS011;28233;55.748;48.752;2024-03-08T00:53:56;6.50;;;1.45;;
42602;SDS011;28233;55.748;48.752;2024-03-08T00:55:59;2.90;;;1.13;;
42602;SDS011;28233;55.748;48.752;2024-03-08T00:58:02;3.20;;;1.73;;
42602;SDS011;28233;55.748;48.752;2024-03-08T01:00:05;2.97;;;1.63;;
42602;SDS011;28233;55.748;48.752;2024-03-08T01:02:15;3.00;;;1.65;;
42602;SDS011;28233;55.748;48.752;2024-03-08T01:04:19;2.65;;;1.10;;
42602;SDS011;28233;55.748;48.752;2024-03-08T01:06:23;5.18;;;1.55;;
42602;SDS011;28233;55.748;48.752;2024-03-08T01:08:26;6.35;;;1.58;;
42602;SDS011;28233;55.748;48.752;2024-03-08T01:10:30;3.08;;;2.05;;
42602;SDS011;28233;55.748;48.752;2024-03-08T01:12:32;3.35;;;1.58;;
42602;SDS011;28233;55.748;48.752;2024-03-08T01:14:35;4.47;;;1.52;;
42602;SDS011;28233;55.748;48.752;2024-03-08T01:16:38;4.18;;;1.42;;
42602;SDS011;28233;55.748;48.752;2024-03-08T01:18:41;2.53;;;1.30;;
42602;SDS011;28233;55.748;48.752;2024-03-08T01:20:44;2.72;;;1.08;;
42602;SDS011;28233;55.748;48.752;2024-03-08T01:22:46;5.05;;;1.70;;
42602;SDS011;28233;55.748;48.752;2024-03-08T01:24:49;2.92;;;1.48;;
42602;SDS011;28233;55.748;48.752;2024-03-08T01:26:52;3.80;;;1.85;;
42602;SDS011;28233;55.748;48.752;2024-03-08T01:28:55;3.05;;;1.58;;
42602;SDS011;28233;55.748;48.752;2024-03-08T01:30:57;3.00;;;1.60;;
42602;SDS011;28233;55.748;48.752;2024-03-08T01:33:01;2.58;;;1.15;;
42602;SDS011;28233;55.748;48.752;2024-03-08T01:35:05;2.63;;;1.00;;
42602;SDS011;28233;55.748;48.752;2024-03-08T01:37:08;2.13;;;1.27;;
42602;SDS011;28233;55.748;48.752;2024-03-08T01:39:11;3.63;;;1.17;;
42602;SDS011;28233;55.748;48.752;2024-03-08T01:41:14;3.72;;;1.85;;
42602;SDS011;28233;55.748;48.752;2024-03-08T01:43:22;2.40;;;1.42;;
42602;SDS011;28233;55.748;48.752;2024-03-08T01:45:30;5.40;;;1.65;;
42602;SDS011;28233;55.748;48.752;2024-03-08T01:47:36;5.88;;;2.50;;
42602;SDS011;28233;55.748;48.752;2024-03-08T01:49:40;2.35;;;1.52;;
42602;SDS011;28233;55.748;48.752;2024-03-08T01:51:43;2.10;;;1.05;;
42602;SDS011;28233;55.748;48.752;2024-03-08T01:53:46;2.88;;;1.77;;
42602;SDS011;28233;55.748;48.752;2024-03-08T01:55:51;4.55;;;1.45;;
42602;SDS011;28233;55.748;48.752;2024-03-08T01:57:58;4.13;;;1.50;;
42602;SDS011;28233;55.748;48.752;2024-03-08T02:00:02;3.17;;;1.23;;
42602;SDS011;28233;55.748;48.752;2024-03-08T02:02:07;7.55;;;1.85;;
42602;SDS011;28233;55.748;48.752;2024-03-08T02:04:13;3.50;;;1.88;;
42602;SDS011;28233;55.748;48.752;2024-03-08T02:06:16;5.53;;;1.98;;
42602;SDS011;28233;55.748;48.752;2024-03-08T02:08:20;2.72;;;1.42;;
42602;SDS011;28233;55.748;48.752;2024-03-08T02:10:25;4.65;;;1.55;;
42602;SDS011;28233;55.748;48.752;2024-03-08T02:12:27;6.18;;;1.83;;
42602;SDS011;28233;55.748;48.752;2024-03-08T02:14:31;2.92;;;1.55;;
42602;SDS011;28233;55.748;48.752;2024-03-08T02:16:34;3.83;;;1.73;;
42602;SDS011;28233;55.748;48.752;2024-03-08T02:18:36;3.17;;;1.30;;
42602;SDS011;28233;55.748;48.752;2024-03-08T02:20:42;3.25;;;1.65;;
42602;SDS011;28233;55.748;48.752;2024-03-08T02:22:45;4.88;;;1.55;;
42602;SDS011;28233;55.748;48.752;2024-03-08T02:24:48;3.85;;;1.98;;
42602;SDS011;28233;55.748;48.752;2024-03-08T02:26:52;2.30;;;1.30;;
42602;SDS011;28233;55.748;48.752;2024-03-08T02:28:55;2.38;;;1.65;;
42602;SDS011;28233;55.748;48.752;2024-03-08T02:30:58;3.63;;;1.30;;
42602;SDS011;28233;55.748;48.752;2024-03-08T02:33:01;4.78;;;1.63;;
42602;SDS011;28233;55.748;48.752;2024-03-08T02:35:04;4.93;;;1.40;;
42602;SDS011;28233;55.748;48.752;2024-03-08T02:37:08;4.53;;;1.80;;
42602;SDS011;28233;55.748;48.752;2024-03-08T02:39:11;2.95;;;1.30;;
42602;SDS011;28233;55.748;48.752;2024-03-08T02:41:14;2.42;;;1.33;;
42602;SDS011;28233;55.748;48.752;2024-03-08T02:43:17;3.65;;;1.50;;
42602;SDS011;28233;55.748;48.752;2024-03-08T02:45:22;2.90;;;1.45;;
42602;SDS011;28233;55.748;48.752;2024-03-08T02:47:24;2.60;;;1.27;;
42602;SDS011;28233;55.748;48.752;2024-03-08T02:49:29;3.20;;;1.70;;
42602;SDS011;28233;55.748;48.752;2024-03-08T02:51:33;2.05;;;1.27;;
42602;SDS011;28233;55.748;48.752;2024-03-08T02:53:37;3.00;;;1.75;;
42602;SDS011;28233;55.748;48.752;2024-03-08T02:55:40;2.83;;;1.83;;
42602;SDS011;28233;55.748;48.752;2024-03-08T02:57:44;6.80;;;2.00;;
42602;SDS011;28233;55.748;48.752;2024-03-08T02:59:49;3.50;;;2.05;;
42602;SDS011;28233;55.748;48.752;2024-03-08T03:01:52;4.05;;;1.33;;
42602;SDS011;28233;55.748;48.752;2024-03-08T03:03:55;3.47;;;2.10;;
42602;SDS011;28233;55.748;48.752;2024-03-08T03:05:58;4.90;;;1.65;;
42602;SDS011;28233;55.748;48.752;2024-03-08T03:08:01;2.72;;;1.95;;
42602;SDS011;28233;55.748;48.752;2024-03-08T03:10:06;3.40;;;1.65;;
42602;SDS011;28233;55.748;48.752;2024-03-08T03:12:09;3.72;;;2.05;;
42602;SDS011;28233;55.748;48.752;2024-03-08T03:14:12;3.78;;;2.13;;
42602;SDS011;28233;55.748;48.752;2024-03-08T03:16:18;3.20;;;1.63;;
42602;SDS011;28233;55.748;48.752;2024-03-08T03:18:25;2.92;;;1.38;;
42602;SDS011;28233;55.748;48.752;2024-03-08T03:20:29;4.15;;;1.95;;
42602;SDS011;28233;55.748;48.752;2024-03-08T03:22:39;6.18;;;2.63;;
42602;SDS011;28233;55.748;48.752;2024-03-08T03:24:43;3.55;;;1.52;;
42602;SDS011;28233;55.748;48.752;2024-03-08T03:26:46;4.75;;;1.50;;
42602;SDS011;28233;55.748;48.752;2024-03-08T03:28:51;4.43;;;1.73;;
42602;SDS011;28233;55.748;48.752;2024-03-08T03:30:54;3.13;;;1.48;;
42602;SDS011;28233;55.748;48.752;2024-03-08T03:32:56;2.58;;;1.42;;
42602;SDS011;28233;55.748;48.752;2024-03-08T03:35:02;8.45;;;2.10;;
42602;SDS011;28233;55.748;48.752;2024-03-08T03:37:07;2.85;;;1.40;;
42602;SDS011;28233;55.748;48.752;2024-03-08T03:39:16;4.55;;;2.22;;
42602;SDS011;28233;55.748;48.752;2024-03-08T03:41:19;3.85;;;2.03;;
42602;SDS011;28233;55.748;48.752;2024-03-08T03:43:21;4.85;;;1.80;;
42602;SDS011;28233;55.748;48.752;2024-03-08T03:45:24;3.00;;;2.00;;
42602;SDS011;28233;55.748;48.752;2024-03-08T03:47:27;3.55;;;2.10;;
42602;SDS011;28233;55.748;48.752;2024-03-08T03:49:30;3.15;;;1.73;;
42602;SDS011;28233;55.748;48.752;2024-03-08T03:51:33;4.35;;;2.08;;
42602;SDS011;28233;55.748;48.752;2024-03-08T03:53:35;3.28;;;1.92;;
42602;SDS011;28233;55.748;48.752;2024-03-08T03:55:38;4.88;;;2.88;;
42602;SDS011;28233;55.748;48.752;2024-03-08T03:57:43;2.63;;;2.00;;
42602;SDS011;28233;55.748;48.752;2024-03-08T03:59:48;5.35;;;2.10;;
42602;SDS011;28233;55.748;48.752;2024-03-08T04:01:51;4.45;;;1.98;;
42602;SDS011;28233;55.748;48.752;2024-03-08T04:03:53;4.38;;;1.95;;
42602;SDS011;28233;55.748;48.752;2024-03-08T04:05:56;3.58;;;1.70;;
42602;SDS011;28233;55.748;48.752;2024-03-08T04:07:59;4.95;;;2.10;;
42602;SDS011;28233;55.748;48.752;2024-03-08T04:10:02;5.95;;;1.98;;
42602;SDS011;28233;55.748;48.752;2024-03-08T04:12:06;5.22;;;2.05;;
42602;SDS011;28233;55.748;48.752;2024-03-08T04:14:09;1.70;;;1.13;;
42602;SDS011;28233;55.748;48.752;2024-03-08T04:16:12;4.82;;;1.88;;
42602;SDS011;28233;55.748;48.752;2024-03-08T04:18:15;4.57;;;2.17;;
42602;SDS011;28233;55.748;48.752;2024-03-08T04:20:18;5.10;;;2.17;;
42602;SDS011;28233;55.748;48.752;2024-03-08T04:22:20;6.47;;;2.08;;
42602;SDS011;28233;55.748;48.752;2024-03-08T04:24:23;3.65;;;1.50;;
42602;SDS011;28233;55.748;48.752;2024-03-08T04:26:26;6.13;;;2.28;;
42602;SDS011;28233;55.748;48.752;2024-03-08T04:28:29;5.90;;;2.35;;
42602;SDS011;28233;55.748;48.752;2024-03-08T04:30:32;3.20;;;1.50;;
42602;SDS011;28233;55.748;48.752;2024-03-08T04:32:35;5.72;;;1.73;;
42602;SDS011;28233;55.748;48.752;2024-03-08T04:34:38;8.73;;;1.98;;
42602;SDS011;28233;55.748;48.752;2024-03-08T04:36:43;3.75;;;2.10;;
42602;SDS011;28233;55.748;48.752;2024-03-08T04:38:46;3.70;;;2.03;;
42602;SDS011;28233;55.748;48.752;2024-03-08T04:40:49;4.63;;;2.15;;
42602;SDS011;28233;55.748;48.752;2024-03-08T04:42:52;2.83;;;1.60;;
42602;SDS011;28233;55.748;48.752;2024-03-08T04:44:55;6.78;;;2.55;;
42602;SDS011;28233;55.748;48.752;2024-03-08T04:46:58;4.00;;;1.98;;
42602;SDS011;28233;55.748;48.752;2024-03-08T04:49:02;5.32;;;2.50;;
42602;SDS011;28233;55.748;48.752;2024-03-08T04:51:05;5.15;;;2.03;;
42602;SDS011;28233;55.748;48.752;2024-03-08T04:53:08;5.38;;;2.22;;
42602;SDS011;28233;55.748;48.752;2024-03-08T04:55:11;5.25;;;1.80;;
42602;SDS011;28233;55.748;48.752;2024-03-08T04:57:14;5.45;;;2.42;;
42602;SDS011;28233;55.748;48.752;2024-03-08T04:59:17;4.68;;;2.05;;
42602;SDS011;28233;55.748;48.752;2024-03-08T05:01:20;4.53;;;2.03;;
42602;SDS011;28233;55.748;48.752;2024-03-08T05:03:22;3.60;;;1.60;;
42602;SDS011;28233;55.748;48.752;2024-03-08T05:05:28;6.20;;;2.10;;
42602;SDS011;28233;55.748;48.752;2024-03-08T05:07:32;5.30;;;2.30;;
42602;SDS011;28233;55.748;48.752;2024-03-08T05:09:35;3.78;;;1.80;;
42602;SDS011;28233;55.748;48.752;2024-03-08T05:11:39;6.28;;;2.80;;
42602;SDS011;28233;55.748;48.752;2024-03-08T05:13:43;5.75;;;2.65;;
42602;SDS011;28233;55.748;48.752;2024-03-08T05:15:50;7.15;;;2.65;;
42602;SDS011;28233;55.748;48.752;2024-03-08T05:17:53;4.38;;;2.13;;
42602;SDS011;28233;55.748;48.752;2024-03-08T05:19:56;3.70;;;1.75;;
42602;SDS011;28233;55.748;48.752;2024-03-08T05:22:02;4.40;;;2.55;;
42602;SDS011;28233;55.748;48.752;2024-03-08T05:24:05;7.47;;;2.10;;
42602;SDS011;28233;55.748;48.752;2024-03-08T05:26:08;4.40;;;2.63;;
42602;SDS011;28233;55.748;48.752;2024-03-08T05:28:11;3.13;;;2.00;;
42602;SDS011;28233;55.748;48.752;2024-03-08T05:30:14;3.70;;;2.03;;
42602;SDS011;28233;55.748;48.752;2024-03-08T05:32:17;5.28;;;2.47;;
42602;SDS011;28233;55.748;48.752;2024-03-08T05:34:20;7.40;;;2.05;;
42602;SDS011;28233;55.748;48.752;2024-03-08T05:36:24;5.93;;;2.25;;
42602;SDS011;28233;55.748;48.752;2024-03-08T05:38:28;5.65;;;2.40;;
42602;SDS011;28233;55.748;48.752;2024-03-08T05:40:31;6.00;;;2.90;;
42602;SDS011;28233;55.748;48.752;2024-03-08T05:42:36;5.57;;;2.50;;
42602;SDS011;28233;55.748;48.752;2024-03-08T05:44:39;3.17;;;2.00;;
42602;SDS011;28233;55.748;48.752;2024-03-08T05:46:42;3.25;;;1.92;;
42602;SDS011;28233;55.748;48.752;2024-03-08T05:48:45;5.40;;;2.50;;
42602;SDS011;28233;55.748;48.752;2024-03-08T05:50:48;4.47;;;2.38;;
42602;SDS011;28233;55.748;48.752;2024-03-08T05:52:51;5.55;;;3.05;;
42602;SDS011;28233;55.748;48.752;2024-03-08T05:54:54;4.97;;;2.45;;
42602;SDS011;28233;55.748;48.752;2024-03-08T05:56:57;8.65;;;2.47;;
42602;SDS011;28233;55.748;48.752;2024-03-08T05:59:00;5.30;;;2.28;;
42602;SDS011;28233;55.748;48.752;2024-03-08T06:01:02;4.85;;;2.33;;
42602;SDS011;28233;55.748;48.752;2024-03-08T06:05:58;6.63;;;2.08;;
42602;SDS011;28233;55.748;48.752;2024-03-08T06:08:00;2.58;;;1.67;;
42602;SDS011;28233;55.748;48.752;2024-03-08T06:10:04;4.82;;;2.38;;
42602;SDS011;28233;55.748;48.752;2024-03-08T06:12:09;5.05;;;2.55;;
42602;SDS011;28233;55.748;48.752;2024-03-08T06:14:13;4.20;;;2.33;;
42602;SDS011;28233;55.748;48.752;2024-03-08T06:16:18;5.95;;;2.33;;
42602;SDS011;28233;55.748;48.752;2024-03-08T06:18:21;6.38;;;2.42;;
42602;SDS011;28233;55.748;48.752;2024-03-08T06:20:24;4.72;;;2.13;;
42602;SDS011;28233;55.748;48.752;2024-03-08T06:22:28;9.82;;;3.15;;
42602;SDS011;28233;55.748;48.752;2024-03-08T06:24:32;7.00;;;2.88;;
42602;SDS011;28233;55.748;48.752;2024-03-08T06:26:36;7.15;;;2.97;;
42602;SDS011;28233;55.748;48.752;2024-03-08T06:28:41;5.55;;;2.60;;
42602;SDS011;28233;55.748;48.752;2024-03-08T06:30:44;6.60;;;2.55;;
42602;SDS011;28233;55.748;48.752;2024-03-08T06:32:46;5.28;;;2.30;;
42602;SDS011;28233;55.748;48.752;2024-03-08T06:34:49;4.95;;;2.72;;
42602;SDS011;28233;55.748;48.752;2024-03-08T06:36:52;5.60;;;2.13;;
42602;SDS011;28233;55.748;48.752;2024-03-08T06:38:57;7.20;;;3.70;;
42602;SDS011;28233;55.748;48.752;2024-03-08T06:41:00;7.60;;;3.38;;
42602;SDS011;28233;55.748;48.752;2024-03-08T06:43:06;5.00;;;2.53;;
42602;SDS011;28233;55.748;48.752;2024-03-08T06:45:09;4.45;;;2.55;;
42602;SDS011;28233;55.748;48.752;2024-03-08T06:47:12;5.45;;;2.90;;
42602;SDS011;28233;55.748;48.752;2024-03-08T06:49:15;4.70;;;2.78;;
42602;SDS011;28233;55.748;48.752;2024-03-08T06:51:18;5.95;;;2.90;;
42602;SDS011;28233;55.748;48.752;2024-03-08T06:53:21;6.22;;;3.13;;
42602;SDS011;28233;55.748;48.752;2024-03-08T06:55:28;5.80;;;3.38;;
42602;SDS011;28233;55.748;48.752;2024-03-08T06:57:31;6.25;;;3.00;;
42602;SDS011;28233;55.748;48.752;2024-03-08T06:59:34;6.13;;;3.03;;
42602;SDS011;28233;55.748;48.752;2024-03-08T07:01:38;7.55;;;2.35;;
42602;SDS011;28233;55.748;48.752;2024-03-08T07:03:43;6.00;;;2.83;;
42602;SDS011;28233;55.748;48.752;2024-03-08T07:05:47;11.68;;;2.90;;
42602;SDS011;28233;55.748;48.752;2024-03-08T07:07:50;7.43;;;3.15;;
42602;SDS011;28233;55.748;48.752;2024-03-08T07:09:53;6.18;;;3.22;;
42602;SDS011;28233;55.748;48.752;2024-03-08T07:11:57;6.47;;;2.47;;
42602;SDS011;28233;55.748;48.752;2024-03-08T07:14:00;5.25;;;3.25;;
42602;SDS011;28233;55.748;48.752;2024-03-08T07:16:05;5.60;;;2.80;;
42602;SDS011;28233;55.748;48.752;2024-03-08T07:18:09;5.88;;;2.80;;
42602;SDS011;28233;55.748;48.752;2024-03-08T07:20:17;7.88;;;3.13;;
42602;SDS011;28233;55.748;48.752;2024-03-08T07:22:21;5.32;;;2.72;;
42602;SDS011;28233;55.748;48.752;2024-03-08T07:24:25;6.63;;;3.17;;
42602;SDS011;28233;55.748;48.752;2024-03-08T07:26:40;5.97;;;2.95;;
42602;SDS011;28233;55.748;48.752;2024-03-08T07:28:43;5.63;;;2.90;;
42602;SDS011;28233;55.748;48.752;2024-03-08T07:30:46;5.15;;;2.83;;
42602;SDS011;28233;55.748;48.752;2024-03-08T07:32:48;7.43;;;3.95;;
42602;SDS011;28233;55.748;48.752;2024-03-08T07:34:51;5.05;;;2.75;;
42602;SDS011;28233;55.748;48.752;2024-03-08T07:36:55;9.00;;;3.70;;
42602;SDS011;28233;55.748;48.752;2024-03-08T07:38:58;3.88;;;2.45;;
42602;SDS011;28233;55.748;48.752;2024-03-08T07:41:01;11.43;;;3.25;;
42602;SDS011;28233;55.748;48.752;2024-03-08T07:43:07;4.28;;;2.55;;
42602;SDS011;28233;55.748;48.752;2024-03-08T07:45:11;7.57;;;3.53;;
42602;SDS011;28233;55.748;48.752;2024-03-08T07:47:15;6.47;;;3.30;;
42602;SDS011;28233;55.748;48.752;2024-03-08T07:49:21;7.28;;;3.10;;
42602;SDS011;28233;55.748;48.752;2024-03-08T07:51:23;6.93;;;3.33;;
42602;SDS011;28233;55.748;48.752;2024-03-08T07:53:26;9.20;;;4.13;;
42602;SDS011;28233;55.748;48.752;2024-03-08T07:55:29;8.30;;;3.55;;
42602;SDS011;28233;55.748;48.752;2024-03-08T07:57:33;5.80;;;2.72;;
42602;SDS011;28233;55.748;48.752;2024-03-08T07:59:36;4.60;;;2.55;;
42602;SDS011;28233;55.748;48.752;2024-03-08T08:01:39;10.05;;;3.80;;
42602;SDS011;28233;55.748;48.752;2024-03-08T08:03:42;10.10;;;3.33;;
42602;SDS011;28233;55.748;48.752;2024-03-08T08:05:44;6.78;;;2.92;;
42602;SDS011;28233;55.748;48.752;2024-03-08T08:07:48;4.88;;;2.97;;
42602;SDS011;28233;55.748;48.752;2024-03-08T08:09:53;12.82;;;3.58;;
42602;SDS011;28233;55.748;48.752;2024-03-08T08:11:56;7.20;;;3.20;;
42602;SDS011;28233;55.748;48.752;2024-03-08T08:13:59;8.40;;;3.20;;
42602;SDS011;28233;55.748;48.752;2024-03-08T08:16:03;9.68;;;3.65;;
42602;SDS011;28233;55.748;48.752;2024-03-08T08:18:07;9.40;;;3.22;;
42602;SDS011;28233;55.748;48.752;2024-03-08T08:20:12;9.55;;;3.83;;
42602;SDS011;28233;55.748;48.752;2024-03-08T08:22:15;8.52;;;3.42;;
42602;SDS011;28233;55.748;48.752;2024-03-08T08:24:18;7.00;;;3.38;;
42602;SDS011;28233;55.748;48.752;2024-03-08T08:26:22;8.63;;;3.42;;
42602;SDS011;28233;55.748;48.752;2024-03-08T08:28:28;8.23;;;3.85;;
42602;SDS011;28233;55.748;48.752;2024-03-08T08:30:31;9.40;;;5.05;;
42602;SDS011;28233;55.748;48.752;2024-03-08T08:32:37;8.20;;;3.70;;
42602;SDS011;28233;55.748;48.752;2024-03-08T08:34:49;8.68;;;3.72;;
42602;SDS011;28233;55.748;48.752;2024-03-08T08:36:53;9.23;;;3.67;;
42602;SDS011;28233;55.748;48.752;2024-03-08T08:38:57;6.13;;;2.95;;
42602;SDS011;28233;55.748;48.752;2024-03-08T08:41:00;6.97;;;3.45;;
42602;SDS011;28233;55.748;48.752;2024-03-08T08:43:04;6.43;;;3.45;;
42602;SDS011;28233;55.748;48.752;2024-03-08T08:45:08;6.55;;;3.00;;
42602;SDS011;28233;55.748;48.752;2024-03-08T08:47:18;5.32;;;3.30;;
42602;SDS011;28233;55.748;48.752;2024-03-08T08:49:21;8.10;;;3.40;;
42602;SDS011;28233;55.748;48.752;2024-03-08T08:51:24;8.68;;;3.90;;
42602;SDS011;28233;55.748;48.752;2024-03-08T08:53:30;5.97;;;3.33;;
42602;SDS011;28233;55.748;48.752;2024-03-08T08:55:33;6.90;;;4.22;;
42602;SDS011;28233;55.748;48.752;2024-03-08T08:57:38;9.90;;;4.45;;
42602;SDS011;28233;55.748;48.752;2024-03-08T08:59:41;7.32;;;3.35;;
42602;SDS011;28233;55.748;48.752;2024-03-08T09:01:43;10.95;;;4.03;;
42602;SDS011;28233;55.748;48.752;2024-03-08T09:03:49;7.85;;;4.07;;
42602;SDS011;28233;55.748;48.752;2024-03-08T09:05:52;9.95;;;3.25;;
42602;SDS011;28233;55.748;48.752;2024-03-08T09:07:55;5.43;;;3.00;;
42602;SDS011;28233;55.748;48.752;2024-03-08T09:09:58;10.77;;;3.90;;
42602;SDS011;28233;55.748;48.752;2024-03-08T09:12:01;6.78;;;4.10;;
42602;SDS011;28233;55.748;48.752;2024-03-08T09:14:04;6.22;;;2.92;;
42602;SDS011;28233;55.748;48.752;2024-03-08T09:16:07;6.57;;;3.10;;
42602;SDS011;28233;55.748;48.752;2024-03-08T09:18:10;8.35;;;4.10;;
42602;SDS011;28233;55.748;48.752;2024-03-08T09:20:13;13.50;;;3.70;;
42602;SDS011;28233;55.748;48.752;2024-03-08T09:22:17;7.60;;;3.42;;
42602;SDS011;28233;55.748;48.752;2024-03-08T09:24:20;5.25;;;3.30;;
42602;SDS011;28233;55.748;48.752;2024-03-08T09:26:23;8.43;;;3.45;;
42602;SDS011;28233;55.748;48.752;2024-03-08T09:28:30;6.70;;;3.63;;
42602;SDS011;28233;55.748;48.752;2024-03-08T09:30:33;7.28;;;3.15;;
42602;SDS011;28233;55.748;48.752;2024-03-08T09:32:37;8.65;;;3.55;;
42602;SDS011;28233;55.748;48.752;2024-03-08T09:34:40;9.85;;;3.17;;
42602;SDS011;28233;55.748;48.752;2024-03-08T09:36:43;5.22;;;3.63;;
42602;SDS011;28233;55.748;48.752;2024-03-08T09:38:46;9.63;;;3.75;;
42602;SDS011;28233;55.748;48.752;2024-03-08T09:40:49;5.63;;;3.10;;
42602;SDS011;28233;55.748;48.752;2024-03-08T09:42:53;5.97;;;2.72;;
42602;SDS011;28233;55.748;48.752;2024-03-08T09:44:58;5.65;;;3.08;;
42602;SDS011;28233;55.748;48.752;2024-03-08T09:47:01;6.68;;;2.90;;
42602;SDS011;28233;55.748;48.752;2024-03-08T09:49:06;6.07;;;3.63;;
42602;SDS011;28233;55.748;48.752;2024-03-08T09:51:10;6.18;;;3.28;;
42602;SDS011;28233;55.748;48.752;2024-03-08T09:53:17;6.55;;;3.03;;
42602;SDS011;28233;55.748;48.752;2024-03-08T09:55:20;4.18;;;2.78;;
42602;SDS011;28233;55.748;48.752;2024-03-08T09:57:25;9.80;;;3.78;;
42602;SDS011;28233;55.748;48.752;2024-03-08T09:59:28;10.90;;;3.72;;
42602;SDS011;28233;55.748;48.752;2024-03-08T10:01:31;8.02;;;3.88;;
42602;SDS011;28233;55.748;48.752;2024-03-08T10:03:34;6.57;;;3.50;;
42602;SDS011;28233;55.748;48.752;2024-03-08T10:05:37;11.85;;;3.83;;
42602;SDS011;28233;55.748;48.752;2024-03-08T10:07:40;6.82;;;3.58;;
42602;SDS011;28233;55.748;48.752;2024-03-08T10:09:43;9.40;;;3.67;;
42602;SDS011;28233;55.748;48.752;2024-03-08T10:11:53;7.30;;;3.63;;
42602;SDS011;28233;55.748;48.752;2024-03-08T10:14:02;10.55;;;3.13;;
42602;SDS011;28233;55.748;48.752;2024-03-08T10:16:08;9.05;;;3.67;;
42602;SDS011;28233;55.748;48.752;2024-03-08T10:18:11;9.98;;;3.92;;
42602;SDS011;28233;55.748;48.752;2024-03-08T10:20:14;6.15;;;3.13;;
42602;SDS011;28233;55.748;48.752;2024-03-08T10:22:21;7.68;;;3.30;;
42602;SDS011;28233;55.748;48.752;2024-03-08T10:24:24;9.48;;;3.67;;
42602;SDS011;28233;55.748;48.752;2024-03-08T10:26:27;6.75;;;4.68;;
42602;SDS011;28233;55.748;48.752;2024-03-08T10:28:30;9.48;;;3.85;;
42602;SDS011;28233;55.748;48.752;2024-03-08T10:30:33;5.60;;;3.45;;
42602;SDS011;28233;55.748;48.752;2024-03-08T10:32:36;9.13;;;3.72;;
42602;SDS011;28233;55.748;48.752;2024-03-08T10:34:40;8.05;;;3.40;;
42602;SDS011;28233;55.748;48.752;2024-03-08T10:36:44;7.30;;;2.90;;
42602;SDS011;28233;55.748;48.752;2024-03-08T10:38:53;6.65;;;3.63;;
42602;SDS011;28233;55.748;48.752;2024-03-08T10:40:59;8.00;;;3.83;;
42602;SDS011;28233;55.748;48.752;2024-03-08T10:43:04;7.35;;;3.65;;
42602;SDS011;28233;55.748;48.752;2024-03-08T10:45:12;7.22;;;3.45;;
42602;SDS011;28233;55.748;48.752;2024-03-08T10:47:26;6.13;;;3.25;;
42602;SDS011;28233;55.748;48.752;2024-03-08T10:49:35;6.78;;;2.90;;
42602;SDS011;28233;55.748;48.752;2024-03-08T10:51:41;7.40;;;3.70;;
42602;SDS011;28233;55.748;48.752;2024-03-08T10:53:45;7.03;;;3.45;;
42602;SDS011;28233;55.748;48.752;2024-03-08T10:55:50;9.20;;;3.83;;
42602;SDS011;28233;55.748;48.752;2024-03-08T10:57:56;8.57;;;3.50;;
42602;SDS011;28233;55.748;48.752;2024-03-08T10:59:59;7.97;;;3.83;;
42602;SDS011;28233;55.748;48.752;2024-03-08T11:02:03;8.27;;;4.38;;
42602;SDS011;28233;55.748;48.752;2024-03-08T11:04:07;6.53;;;4.10;;
42602;SDS011;28233;55.748;48.752;2024-03-08T11:08:38;9.73;;;3.97;;
42602;SDS011;28233;55.748;48.752;2024-03-08T11:10:50;9.75;;;3.42;;
42602;SDS011;28233;55.748;48.752;2024-03-08T11:12:58;8.82;;;3.72;;
42602;SDS011;28233;55.748;48.752;2024-03-08T11:15:09;11.25;;;4.10;;
42602;SDS011;28233;55.748;48.752;2024-03-08T11:17:14;8.25;;;4.72;;
42602;SDS011;28233;55.748;48.752;2024-03-08T11:21:23;9.73;;;3.80;;
42602;SDS011;28233;55.748;48.752;2024-03-08T11:23:28;9.95;;;4.57;;
42602;SDS011;28233;55.748;48.752;2024-03-08T11:27:52;11.10;;;4.22;;
42602;SDS011;28233;55.748;48.752;2024-03-08T11:30:08;8.98;;;4.53;;
42602;SDS011;28233;55.748;48.752;2024-03-08T11:32:19;6.05;;;4.03;;
42602;SDS011;28233;55.748;48.752;2024-03-08T11:34:25;10.13;;;4.43;;
42602;SDS011;28233;55.748;48.752;2024-03-08T11:36:28;8.68;;;4.07;;
42602;SDS011;28233;55.748;48.752;2024-03-08T11:38:34;7.05;;;3.70;;
42602;SDS011;28233;55.748;48.752;2024-03-08T11:40:51;13.32;;;5.60;;
42602;SDS011;28233;55.748;48.752;2024-03-08T11:42:54;12.88;;;4.22;;
42602;SDS011;28233;55.748;48.752;2024-03-08T11:44:57;13.30;;;5.47;;
42602;SDS011;28233;55.748;48.752;2024-03-08T11:47:00;8.73;;;4.53;;
42602;SDS011;28233;55.748;48.752;2024-03-08T11:49:03;7.22;;;4.38;;
42602;SDS011;28233;55.748;48.752;2024-03-08T11:51:06;8.73;;;4.28;;
42602;SDS011;28233;55.748;48.752;2024-03-08T11:53:09;11.23;;;4.82;;
42602;SDS011;28233;55.748;48.752;2024-03-08T11:55:12;9.35;;;3.67;;
42602;SDS011;28233;55.748;48.752;2024-03-08T11:57:17;9.43;;;4.30;;
42602;SDS011;28233;55.748;48.752;2024-03-08T11:59:20;5.97;;;3.78;;
42602;SDS011;28233;55.748;48.752;2024-03-08T12:01:23;7.53;;;4.13;;
42602;SDS011;28233;55.748;48.752;2024-03-08T12:03:26;11.43;;;5.13;;
42602;SDS011;28233;55.748;48.752;2024-03-08T12:05:29;9.45;;;3.97;;
42602;SDS011;28233;55.748;48.752;2024-03-08T12:07:33;10.45;;;5.43;;
42602;SDS011;28233;55.748;48.752;2024-03-08T12:09:36;9.48;;;4.28;;
42602;SDS011;28233;55.748;48.752;2024-03-08T12:11:39;7.50;;;4.47;;
42602;SDS011;28233;55.748;48.752;2024-03-08T12:13:42;7.00;;;4.72;;
42602;SDS011;28233;55.748;48.752;2024-03-08T12:15:44;9.98;;;4.57;;
42602;SDS011;28233;55.748;48.752;2024-03-08T12:17:48;6.88;;;4.20;;
42602;SDS011;28233;55.748;48.752;2024-03-08T12:19:53;8.20;;;4.47;;
42602;SDS011;28233;55.748;48.752;2024-03-08T12:21:57;11.90;;;5.35;;
42602;SDS011;28233;55.748;48.752;2024-03-08T12:24:06;10.50;;;4.90;;